Time;durP1;ratioP1;P1;durP2;ratioP2;P2;SDS_P1;SDS_P2;PMS_P1;PMS_P2;Temp;Humidity;BMP_temperature;BMP_pressure;BME280_temperature;BME280_humidity;BME280_pressure;Samples;Min_cycle;Max_cycle;Signal;HPM_P1;HPM_P2
2021/09/11 00:01:13;;;;;;;23.08;12.02;;;;;;;;;;6153439;28;20054;-69
2021/09/11 00:04:14;;;;;;;17.17;12.00;;;;;;;;;;6158006;28;20058;-69
2021/09/11 00:07:16;;;;;;;17.98;11.88;;;;;;;;;;6154943;28;20046;-70
2021/09/11 00:10:18;;;;;;;16.83;12.40;;;;;;;;;;6158448;28;20110;-70
2021/09/11 00:13:20;;;;;;;17.15;11.18;;;;;;;;;;6159282;28;20141;-71
2021/09/11 00:16:23;;;;;;;18.58;11.23;;;;;;;;;;6141709;28;20479;-69
2021/09/11 00:19:24;;;;;;;15.70;11.25;;;;;;;;;;6161617;28;20058;-69
2021/09/11 00:22:26;;;;;;;16.90;10.50;;;;;;;;;;6148823;28;20050;-71
2021/09/11 00:25:28;;;;;;;17.10;11.35;;;;;;;;;;6153491;28;20186;-70
2021/09/11 00:28:30;;;;;;;15.35;10.68;;;;;;;;;;6162799;28;20053;-69
2021/09/11 00:31:33;;;;;;;15.88;10.75;;;;;;;;;;6150933;28;20054;-71
2021/09/11 00:34:34;;;;;;;17.48;10.88;;;;;;;;;;6158623;28;20133;-69
2021/09/11 00:37:36;;;;;;;13.98;10.55;;;;;;;;;;6151484;28;20197;-69
2021/09/11 00:40:38;;;;;;;16.67;10.80;;;;;;;;;;6158777;28;20799;-70
2021/09/11 00:43:45;;;;;;;16.30;11.35;;;;;;;;;;6164137;28;20173;-69
2021/09/11 00:46:48;;;;;;;14.80;10.63;;;;;;;;;;6142664;28;20120;-69
2021/09/11 00:49:49;;;;;;;21.73;10.70;;;;;;;;;;6157282;28;20047;-70
2021/09/11 00:52:51;;;;;;;14.77;10.68;;;;;;;;;;6155533;28;20047;-70
2021/09/11 00:55:53;;;;;;;16.50;12.00;;;;;;;;;;6156797;28;20499;-70
2021/09/11 00:58:54;;;;;;;16.52;11.05;;;;;;;;;;6162613;28;20135;-70
2021/09/11 01:01:57;;;;;;;15.63;10.65;;;;;;;;;;6154953;28;20065;-69
2021/09/11 01:04:59;;;;;;;22.27;11.10;;;;;;;;;;6158942;28;20134;-76
2021/09/11 01:08:01;;;;;;;20.55;11.05;;;;;;;;;;6156933;28;20082;-70
2021/09/11 01:11:02;;;;;;;20.20;11.90;;;;;;;;;;6160261;28;20086;-70
2021/09/11 01:14:04;;;;;;;16.45;11.45;;;;;;;;;;6167305;28;20042;-69
2021/09/11 01:17:07;;;;;;;21.77;11.07;;;;;;;;;;6155656;28;20129;-70
2021/09/11 01:20:09;;;;;;;17.25;10.80;;;;;;;;;;6161720;28;20385;-75
2021/09/11 01:23:11;;;;;;;26.27;11.23;;;;;;;;;;6160684;28;20222;-69
2021/09/11 01:26:15;;;;;;;16.23;10.65;;;;;;;;;;6162471;28;20165;-70
2021/09/11 01:29:17;;;;;;;16.65;11.35;;;;;;;;;;6169820;28;20047;-71
2021/09/11 01:32:19;;;;;;;18.60;11.20;;;;;;;;;;6154247;28;20522;-72
2021/09/11 01:35:20;;;;;;;13.30;11.25;;;;;;;;;;6162630;28;20079;-74
2021/09/11 01:38:23;;;;;;;16.58;10.75;;;;;;;;;;6163867;28;20175;-74
2021/09/11 01:41:26;;;;;;;15.10;10.23;;;;;;;;;;6161085;28;20061;-74
2021/09/11 01:44:28;;;;;;;13.85;11.30;;;;;;;;;;6167277;28;20574;-70
2021/09/11 01:47:29;;;;;;;11.85;10.40;;;;;;;;;;6153470;28;20089;-70
2021/09/11 01:50:31;;;;;;;11.73;10.13;;;;;;;;;;6161287;28;20039;-74
2021/09/11 01:53:32;;;;;;;15.85;10.93;;;;;;;;;;6165791;28;20054;-71
2021/09/11 01:56:35;;;;;;;14.38;10.73;;;;;;;;;;6159309;28;20043;-70
2021/09/11 01:59:37;;;;;;;12.20;10.60;;;;;;;;;;6165320;28;20051;-74
2021/09/11 02:02:39;;;;;;;13.07;10.35;;;;;;;;;;6156349;28;20051;-70
2021/09/11 02:05:41;;;;;;;13.80;10.63;;;;;;;;;;6155078;28;20042;-71
2021/09/11 02:08:42;;;;;;;16.52;9.90;;;;;;;;;;6164472;28;20185;-71
2021/09/11 02:11:45;;;;;;;14.80;11.52;;;;;;;;;;6161864;28;20499;-73
2021/09/11 02:14:47;;;;;;;16.10;11.57;;;;;;;;;;6163043;28;20526;-70
2021/09/11 02:17:50;;;;;;;16.08;11.57;;;;;;;;;;6156383;28;20175;-70
2021/09/11 02:20:51;;;;;;;16.27;11.13;;;;;;;;;;6153446;28;20070;-70
2021/09/11 02:23:53;;;;;;;14.23;11.82;;;;;;;;;;6168219;28;20050;-71
2021/09/11 02:26:56;;;;;;;15.98;12.30;;;;;;;;;;6159681;28;20049;-72
2021/09/11 02:29:58;;;;;;;16.05;12.52;;;;;;;;;;6164918;28;20090;-72
2021/09/11 02:32:59;;;;;;;13.85;11.38;;;;;;;;;;6153362;28;20042;-71
2021/09/11 02:36:01;;;;;;;15.82;11.88;;;;;;;;;;6157276;28;20134;-72
2021/09/11 02:39:03;;;;;;;14.40;12.15;;;;;;;;;;6165899;28;20058;-71
2021/09/11 02:42:06;;;;;;;13.18;11.77;;;;;;;;;;6157956;28;20851;-71
2021/09/11 02:45:09;;;;;;;15.05;11.82;;;;;;;;;;6159832;28;20046;-75
2021/09/11 02:48:11;;;;;;;12.57;10.90;;;;;;;;;;6155944;28;20241;-70
2021/09/11 02:51:12;;;;;;;19.25;11.43;;;;;;;;;;6160142;28;20089;-73
2021/09/11 02:54:14;;;;;;;13.13;10.60;;;;;;;;;;6165908;28;20047;-70
2021/09/11 02:57:17;;;;;;;18.77;11.73;;;;;;;;;;6160631;28;20091;-70
2021/09/11 03:00:19;;;;;;;17.83;11.02;;;;;;;;;;6160180;28;20062;-74
2021/09/11 03:03:20;;;;;;;13.57;10.80;;;;;;;;;;6159738;28;20109;-73
2021/09/11 03:06:22;;;;;;;13.82;10.93;;;;;;;;;;6158626;28;20086;-70
2021/09/11 03:09:24;;;;;;;15.90;11.40;;;;;;;;;;6165634;28;20134;-70
2021/09/11 03:12:27;;;;;;;13.10;11.10;;;;;;;;;;6159673;28;20039;-70
2021/09/11 03:15:28;;;;;;;16.38;11.13;;;;;;;;;;6160082;28;20071;-73
2021/09/11 03:18:30;;;;;;;15.50;10.60;;;;;;;;;;6158517;28;20185;-71
2021/09/11 03:21:31;;;;;;;13.93;11.18;;;;;;;;;;6159629;28;20073;-70
2021/09/11 03:24:33;;;;;;;21.85;12.43;;;;;;;;;;6163538;28;20472;-70
2021/09/11 03:27:36;;;;;;;14.48;10.95;;;;;;;;;;6162201;28;20068;-70
2021/09/11 03:30:38;;;;;;;15.15;11.55;;;;;;;;;;6155622;28;20051;-73
2021/09/11 03:33:39;;;;;;;16.80;11.98;;;;;;;;;;6161138;28;20137;-70
2021/09/11 03:36:41;;;;;;;13.13;11.35;;;;;;;;;;6160664;28;20395;-72
2021/09/11 03:39:42;;;;;;;15.55;11.60;;;;;;;;;;6167489;28;20414;-71
2021/09/11 03:42:45;;;;;;;16.95;11.52;;;;;;;;;;6159883;28;20551;-69
2021/09/11 03:45:47;;;;;;;13.63;11.05;;;;;;;;;;6161303;28;20455;-74
2021/09/11 03:48:49;;;;;;;15.27;11.35;;;;;;;;;;6163078;28;20105;-70
2021/09/11 03:51:51;;;;;;;16.13;11.85;;;;;;;;;;6157546;28;20463;-71
2021/09/11 03:54:52;;;;;;;18.75;12.05;;;;;;;;;;6168755;28;20098;-73
2021/09/11 03:57:55;;;;;;;14.98;11.95;;;;;;;;;;6160913;28;20867;-71
2021/09/11 04:00:59;;;;;;;17.63;11.43;;;;;;;;;;6159039;28;20160;-70
2021/09/11 04:04:00;;;;;;;14.18;11.05;;;;;;;;;;6162109;28;20062;-72
2021/09/11 04:07:02;;;;;;;13.43;12.02;;;;;;;;;;6157551;28;21891;-70
2021/09/11 04:10:04;;;;;;;15.77;11.70;;;;;;;;;;6162449;28;20997;-69
2021/09/11 04:13:07;;;;;;;14.52;12.02;;;;;;;;;;6161736;28;20050;-69
2021/09/11 04:16:08;;;;;;;15.02;11.38;;;;;;;;;;6157700;28;20133;-70
2021/09/11 04:19:10;;;;;;;15.63;12.18;;;;;;;;;;6165300;28;20074;-69
2021/09/11 04:22:12;;;;;;;19.55;12.45;;;;;;;;;;6156099;28;20133;-70
2021/09/11 04:25:13;;;;;;;15.15;11.95;;;;;;;;;;6164632;28;20449;-73
2021/09/11 04:28:16;;;;;;;16.95;11.77;;;;;;;;;;6160342;28;20039;-69
2021/09/11 04:31:18;;;;;;;13.63;11.68;;;;;;;;;;6156844;28;20137;-70
2021/09/11 04:34:19;;;;;;;16.17;12.18;;;;;;;;;;6162108;28;20046;-70
2021/09/11 04:37:21;;;;;;;15.90;11.93;;;;;;;;;;6157420;28;20186;-69
2021/09/11 04:40:22;;;;;;;16.70;12.40;;;;;;;;;;6160441;28;20186;-73
2021/09/11 04:43:25;;;;;;;17.88;12.60;;;;;;;;;;6161882;28;20543;-70
2021/09/11 04:46:27;;;;;;;14.70;11.73;;;;;;;;;;6154890;28;20102;-69
2021/09/11 04:49:28;;;;;;;18.60;13.45;;;;;;;;;;6161124;28;20081;-70
2021/09/11 04:52:30;;;;;;;14.95;13.10;;;;;;;;;;6154158;28;20059;-71
2021/09/11 04:55:32;;;;;;;15.05;13.20;;;;;;;;;;6155080;28;20100;-72
2021/09/11 04:58:35;;;;;;;17.42;13.48;;;;;;;;;;6168100;28;20047;-69
2021/09/11 05:01:36;;;;;;;17.08;12.85;;;;;;;;;;6150787;28;20174;-69
2021/09/11 05:04:38;;;;;;;15.40;12.68;;;;;;;;;;6159123;28;20545;-69
2021/09/11 05:07:39;;;;;;;15.35;13.02;;;;;;;;;;6154394;28;20081;-69
2021/09/11 05:10:41;;;;;;;23.52;14.15;;;;;;;;;;6155136;28;20133;-70
2021/09/11 05:13:44;;;;;;;18.20;12.35;;;;;;;;;;6159561;28;20133;-69
2021/09/11 05:16:45;;;;;;;17.55;13.25;;;;;;;;;;6153190;28;20474;-69
2021/09/11 05:19:47;;;;;;;18.88;13.45;;;;;;;;;;6161601;28;20106;-71
2021/09/11 05:22:49;;;;;;;18.38;13.73;;;;;;;;;;6154737;28;20042;-70
2021/09/11 05:25:50;;;;;;;18.15;15.10;;;;;;;;;;6158965;28;20133;-69
2021/09/11 05:28:53;;;;;;;22.33;17.23;;;;;;;;;;6165078;28;20101;-69
2021/09/11 05:31:55;;;;;;;20.98;17.25;;;;;;;;;;6153171;28;20081;-71
2021/09/11 05:34:56;;;;;;;24.10;17.77;;;;;;;;;;6160118;28;20093;-73
2021/09/11 05:37:58;;;;;;;25.50;16.80;;;;;;;;;;6154704;28;20117;-71
2021/09/11 05:40:59;;;;;;;23.98;17.42;;;;;;;;;;6156720;28;20054;-70
2021/09/11 05:44:03;;;;;;;27.02;17.48;;;;;;;;;;6163311;28;20069;-70
2021/09/11 05:47:05;;;;;;;19.67;16.70;;;;;;;;;;6152525;28;20059;-69
2021/09/11 05:50:09;;;;;;;29.40;19.10;;;;;;;;;;6159503;28;20089;-72
2021/09/11 05:53:11;;;;;;;23.85;16.83;;;;;;;;;;6151519;28;20178;-69
2021/09/11 05:56:12;;;;;;;25.77;19.20;;;;;;;;;;6159886;28;20111;-69
2021/09/11 05:59:15;;;;;;;26.05;19.25;;;;;;;;;;6162958;28;20138;-69
2021/09/11 06:02:17;;;;;;;21.60;18.15;;;;;;;;;;6157079;28;20137;-72
2021/09/11 06:05:18;;;;;;;24.33;18.25;;;;;;;;;;6158860;28;20183;-71
2021/09/11 06:08:20;;;;;;;23.63;17.85;;;;;;;;;;6157693;28;20054;-69
2021/09/11 06:11:21;;;;;;;27.83;18.08;;;;;;;;;;6150431;28;20407;-69
2021/09/11 06:14:24;;;;;;;22.88;18.35;;;;;;;;;;6164199;28;20043;-69
2021/09/11 06:17:26;;;;;;;27.27;18.50;;;;;;;;;;6149715;28;20467;-71
2021/09/11 06:20:28;;;;;;;24.80;19.17;;;;;;;;;;6152624;28;20137;-72
2021/09/11 06:23:30;;;;;;;30.10;18.63;;;;;;;;;;6159880;28;20046;-70
2021/09/11 06:26:32;;;;;;;23.30;18.45;;;;;;;;;;6158653;28;20090;-71
2021/09/11 06:29:35;;;;;;;28.65;20.48;;;;;;;;;;6169166;28;20410;-70
2021/09/11 06:32:36;;;;;;;27.10;20.58;;;;;;;;;;6154981;28;20074;-69
2021/09/11 06:35:38;;;;;;;28.77;20.08;;;;;;;;;;6155018;28;20134;-71
2021/09/11 06:38:40;;;;;;;24.70;20.58;;;;;;;;;;6167410;28;20055;-69
2021/09/11 06:41:41;;;;;;;30.38;21.95;;;;;;;;;;6161264;28;20091;-69
2021/09/11 06:44:44;;;;;;;25.50;20.60;;;;;;;;;;6166510;28;20134;-69
2021/09/11 06:47:46;;;;;;;31.15;20.58;;;;;;;;;;6152774;28;20133;-69
2021/09/11 06:50:47;;;;;;;30.30;22.55;;;;;;;;;;6158914;28;20092;-68
2021/09/11 06:53:49;;;;;;;28.45;19.58;;;;;;;;;;6166684;28;20498;-73
2021/09/11 06:56:51;;;;;;;25.10;21.58;;;;;;;;;;6161110;28;20137;-70
2021/09/11 06:59:54;;;;;;;23.63;20.52;;;;;;;;;;6166189;28;20050;-69
2021/09/11 07:02:56;;;;;;;26.63;19.30;;;;;;;;;;6145759;28;20063;-69
2021/09/11 07:05:58;;;;;;;23.83;20.20;;;;;;;;;;6157223;28;20730;-69
2021/09/11 07:09:00;;;;;;;35.57;22.00;;;;;;;;;;6136362;28;20053;-69
2021/09/11 07:12:01;;;;;;;25.70;21.95;;;;;;;;;;6156846;28;20473;-72
2021/09/11 07:15:05;;;;;;;28.40;22.33;;;;;;;;;;6165144;28;20121;-71
2021/09/11 07:18:07;;;;;;;27.27;21.27;;;;;;;;;;6152051;28;20442;-69
2021/09/11 07:21:09;;;;;;;25.52;21.48;;;;;;;;;;6159082;28;20055;-69
2021/09/11 07:24:10;;;;;;;26.70;18.88;;;;;;;;;;6163424;28;20186;-70
2021/09/11 07:27:12;;;;;;;22.20;19.75;;;;;;;;;;6161214;28;20622;-70
2021/09/11 07:30:15;;;;;;;23.73;20.27;;;;;;;;;;6163372;28;20133;-69
2021/09/11 07:33:17;;;;;;;22.75;20.30;;;;;;;;;;6152786;28;20535;-71
2021/09/11 07:36:18;;;;;;;24.92;20.40;;;;;;;;;;6156800;28;20145;-70
2021/09/11 07:39:20;;;;;;;22.05;19.65;;;;;;;;;;6165199;28;20134;-70
2021/09/11 07:42:21;;;;;;;24.73;18.45;;;;;;;;;;6154876;28;20520;-71
2021/09/11 07:45:24;;;;;;;25.63;20.30;;;;;;;;;;6159598;28;20105;-73
2021/09/11 07:48:26;;;;;;;23.50;19.25;;;;;;;;;;6155378;28;20130;-70
2021/09/11 07:51:28;;;;;;;25.20;19.73;;;;;;;;;;6157561;28;20175;-70
2021/09/11 07:54:29;;;;;;;23.90;18.33;;;;;;;;;;6164593;28;20042;-70
2021/09/11 07:57:31;;;;;;;21.73;18.35;;;;;;;;;;6158498;28;20134;-70
2021/09/11 08:00:34;;;;;;;21.30;18.88;;;;;;;;;;6155041;28;20039;-73
2021/09/11 08:03:36;;;;;;;21.95;18.63;;;;;;;;;;6157963;28;20050;-73
2021/09/11 08:06:37;;;;;;;22.08;18.40;;;;;;;;;;6155262;28;20046;-74
2021/09/11 08:09:39;;;;;;;23.65;18.60;;;;;;;;;;6161529;28;20070;-70
2021/09/11 08:12:40;;;;;;;445.73;55.53;;;;;;;;;;6155506;28;20046;-69
2021/09/11 08:15:44;;;;;;;39.97;19.48;;;;;;;;;;6158043;28;20829;-67
2021/09/11 08:18:45;;;;;;;23.38;19.33;;;;;;;;;;6158175;28;20852;-68
2021/09/11 08:21:47;;;;;;;21.77;16.92;;;;;;;;;;6159067;28;20050;-69
2021/09/11 08:24:49;;;;;;;30.35;19.15;;;;;;;;;;6163192;28;20547;-70
2021/09/11 08:27:50;;;;;;;812.92;71.38;;;;;;;;;;6153279;28;20150;-70
2021/09/11 08:30:53;;;;;;;23.92;19.20;;;;;;;;;;6155568;28;20078;-69
2021/09/11 08:33:55;;;;;;;;;;;;;;;;;;6150492;28;20537;-70
2021/09/11 08:36:56;;;;;;;29.83;26.77;;;;;;;;;;6155831;28;20004;-67
2021/09/11 08:39:58;;;;;;;63.05;56.83;;;;;;;;;;6159997;28;20055;-68
2021/09/11 08:43:01;;;;;;;38.92;34.80;;;;;;;;;;6156094;28;20121;-68
2021/09/11 08:46:05;;;;;;;28.98;25.83;;;;;;;;;;6150012;28;20613;-67
2021/09/11 08:49:07;;;;;;;35.65;31.95;;;;;;;;;;6161233;28;20039;-68
2021/09/11 08:52:09;;;;;;;39.63;34.38;;;;;;;;;;6148819;28;20053;-69
2021/09/11 08:55:11;;;;;;;37.67;30.38;;;;;;;;;;6163377;28;20573;-71
2021/09/11 08:58:13;;;;;;;35.17;24.50;;;;;;;;;;6155594;28;20055;-69
2021/09/11 09:01:16;;;;;;;26.92;23.50;;;;;;;;;;6149639;28;20114;-71
2021/09/11 09:04:18;;;;;;;29.67;25.80;;;;;;;;;;6148111;28;20134;-71
2021/09/11 09:07:34;;;;;;;37.43;33.63;;;;;;;;;;6142906;28;20079;-71
2021/09/11 09:10:36;;;;;;;30.67;27.45;;;;;;;;;;6151349;28;20126;-71
2021/09/11 09:13:49;;;;;;;26.53;23.73;;;;;;;;;;6155421;28;20133;-71
2021/09/11 09:16:52;;;;;;;24.40;21.85;;;;;;;;;;6152002;28;20415;-71
2021/09/11 09:20:10;;;;;;;24.63;22.08;;;;;;;;;;6159481;28;20090;-71
2021/09/11 09:23:17;;;;;;;25.05;21.98;;;;;;;;;;6157124;28;20121;-71
2021/09/11 09:26:18;;;;;;;30.23;22.65;;;;;;;;;;6155245;28;20054;-71
2021/09/11 09:29:22;;;;;;;21.03;18.80;;;;;;;;;;6162267;28;20055;-71
2021/09/11 09:32:36;;;;;;;21.92;19.15;;;;;;;;;;6153741;28;20150;-71
2021/09/11 09:35:37;;;;;;;23.75;20.48;;;;;;;;;;6160237;28;20081;-71
2021/09/11 09:38:43;;;;;;;32.67;20.93;;;;;;;;;;6166395;28;20174;-71
2021/09/11 09:41:48;;;;;;;20.92;18.77;;;;;;;;;;6162694;28;20046;-72
2021/09/11 09:44:51;;;;;;;22.08;19.85;;;;;;;;;;6166716;28;20751;-73
2021/09/11 09:48:01;;;;;;;20.63;18.42;;;;;;;;;;6151664;28;20058;-73
2021/09/11 09:51:04;;;;;;;22.30;18.83;;;;;;;;;;6160527;28;20121;-74
2021/09/11 09:54:06;;;;;;;19.30;17.40;;;;;;;;;;6161907;28;20114;-73
2021/09/11 09:57:08;;;;;;;20.35;18.48;;;;;;;;;;6160607;28;20499;-71
2021/09/11 10:00:10;;;;;;;19.17;17.17;;;;;;;;;;6166432;28;20047;-79
2021/09/11 10:03:13;;;;;;;21.10;16.90;;;;;;;;;;6163491;28;20047;-74
2021/09/11 10:06:17;;;;;;;18.42;16.55;;;;;;;;;;6160842;28;20047;-73
2021/09/11 10:09:22;;;;;;;19.02;16.40;;;;;;;;;;6171402;28;20133;-74
2021/09/11 10:12:39;;;;;;;15.20;13.68;;;;;;;;;;6164116;28;20137;-71
2021/09/11 10:15:52;;;;;;;15.20;13.43;;;;;;;;;;6154567;28;20047;-69
2021/09/11 10:18:56;;;;;;;16.02;13.68;;;;;;;;;;6164005;28;20074;-70
2021/09/11 10:22:25;;;;;;;15.85;11.35;;;;;;;;;;6158014;28;20549;-70
2021/09/11 10:25:39;;;;;;;13.27;11.98;;;;;;;;;;6160439;28;20046;-70
2021/09/11 10:28:42;;;;;;;16.73;12.75;;;;;;;;;;6157956;28;20046;-70
2021/09/11 10:31:55;;;;;;;26.65;13.32;;;;;;;;;;6154642;28;20121;-70
2021/09/11 10:35:02;;;;;;;46.30;13.52;;;;;;;;;;6160524;28;20047;-70
2021/09/11 10:38:04;;;;;;;31.65;13.43;;;;;;;;;;6156946;28;20125;-70
2021/09/11 10:41:08;;;;;;;;;;;;;;;;;;6158161;28;20128;-68
2021/09/11 10:44:10;;;;;;;14.48;11.73;;;;;;;;;;6163757;28;20634;-72
2021/09/11 10:47:11;;;;;;;12.52;11.30;;;;;;;;;;6154701;28;20591;-69
2021/09/11 10:50:14;;;;;;;12.18;10.98;;;;;;;;;;6156199;28;20086;-70
2021/09/11 10:53:20;;;;;;;12.63;11.43;;;;;;;;;;6159526;28;20054;-69
2021/09/11 10:56:23;;;;;;;13.63;12.32;;;;;;;;;;6159195;28;20458;-69
2021/09/11 10:59:34;;;;;;;15.18;13.75;;;;;;;;;;6126543;28;20058;-67
2021/09/11 11:02:37;;;;;;;14.80;13.00;;;;;;;;;;6143223;28;20177;-68
2021/09/11 11:09:09;;;;;;;14.93;13.38;;;;;;;;;;6272644;27;21306;-70
2021/09/11 11:12:12;;;;;;;13.77;12.38;;;;;;;;;;6242168;28;20077;-68
2021/09/11 11:15:15;;;;;;;13.32;11.93;;;;;;;;;;6247113;28;20140;-68
2021/09/11 11:18:17;;;;;;;13.02;11.48;;;;;;;;;;6223499;28;20050;-67
2021/09/11 11:21:18;;;;;;;12.95;10.50;;;;;;;;;;6250987;28;20185;-68
2021/09/11 11:24:21;;;;;;;;;;;;;;;;;;6241287;28;20571;-68
2021/09/11 11:27:24;;;;;;;10.70;9.60;;;;;;;;;;6241438;28;19922;-68
2021/09/11 11:30:26;;;;;;;13.00;10.02;;;;;;;;;;6229198;28;20050;-69
2021/09/11 11:33:27;;;;;;;10.80;9.20;;;;;;;;;;6225616;28;20176;-69
2021/09/11 11:36:29;;;;;;;9.65;8.75;;;;;;;;;;6225453;28;20124;-69
2021/09/11 11:39:33;;;;;;;10.05;9.02;;;;;;;;;;6229690;28;20433;-69
2021/09/11 11:42:35;;;;;;;10.93;8.10;;;;;;;;;;6229081;28;20159;-69
2021/09/11 11:45:45;;;;;;;9.85;8.05;;;;;;;;;;6219851;28;20054;-69
2021/09/11 11:48:47;;;;;;;8.85;8.05;;;;;;;;;;6228842;28;20639;-70
2021/09/11 11:51:53;;;;;;;13.52;9.27;;;;;;;;;;6221949;28;20693;-69
2021/09/11 11:54:56;;;;;;;8.80;7.80;;;;;;;;;;6227919;28;20429;-69
2021/09/11 11:58:08;;;;;;;11.40;8.77;;;;;;;;;;6224489;28;20199;-69
2021/09/11 12:01:10;;;;;;;10.52;7.68;;;;;;;;;;6212995;28;20133;-69
2021/09/11 12:04:14;;;;;;;11.25;8.07;;;;;;;;;;6216281;28;20109;-69
2021/09/11 12:07:27;;;;;;;8.73;7.10;;;;;;;;;;6209435;28;20050;-69
2021/09/11 12:10:31;;;;;;;11.30;9.10;;;;;;;;;;6217862;28;20039;-69
2021/09/11 12:13:32;;;;;;;10.30;9.40;;;;;;;;;;6232097;28;20042;-69
2021/09/11 12:16:35;;;;;;;11.55;10.38;;;;;;;;;;6220877;28;20177;-69
2021/09/11 12:19:38;;;;;;;9.65;8.75;;;;;;;;;;6219598;28;20133;-68
2021/09/11 12:22:40;;;;;;;12.02;9.95;;;;;;;;;;6200022;28;20085;-69
2021/09/11 12:25:52;;;;;;;;;;;;;;;;;;6208465;28;20108;-69
2021/09/11 12:28:54;;;;;;;10.75;9.75;;;;;;;;;;6209036;28;20011;-68
2021/09/11 12:31:57;;;;;;;9.63;8.73;;;;;;;;;;6204658;28;20073;-69
2021/09/11 12:35:07;;;;;;;9.68;8.63;;;;;;;;;;6212625;28;20594;-67
2021/09/11 12:38:08;;;;;;;9.93;8.95;;;;;;;;;;6207124;28;20058;-69
2021/09/11 12:41:11;;;;;;;10.02;9.02;;;;;;;;;;6210340;28;20097;-69
2021/09/11 12:44:13;;;;;;;9.57;7.35;;;;;;;;;;6204352;28;20053;-69
2021/09/11 12:47:14;;;;;;;10.23;8.90;;;;;;;;;;6208499;28;20048;-69
2021/09/11 12:50:16;;;;;;;10.55;9.43;;;;;;;;;;6209630;28;20049;-69
2021/09/11 12:53:17;;;;;;;9.48;8.45;;;;;;;;;;6212800;28;20101;-68
2021/09/11 12:56:23;;;;;;;10.68;9.50;;;;;;;;;;6206861;28;20038;-68
2021/09/11 12:59:25;;;;;;;12.43;9.55;;;;;;;;;;6211780;28;20170;-69
2021/09/11 13:02:26;;;;;;;9.35;8.23;;;;;;;;;;6207770;28;20045;-69
2021/09/11 13:05:28;;;;;;;8.93;8.02;;;;;;;;;;6202868;28;20133;-69
2021/09/11 13:08:30;;;;;;;8.48;7.68;;;;;;;;;;6216355;28;20046;-69
2021/09/11 13:11:33;;;;;;;9.27;7.90;;;;;;;;;;6207750;28;20490;-69
2021/09/11 13:14:35;;;;;;;9.85;8.55;;;;;;;;;;6221974;28;20050;-68
2021/09/11 13:17:36;;;;;;;8.63;7.82;;;;;;;;;;6204910;28;20065;-68
2021/09/11 13:20:38;;;;;;;8.45;7.57;;;;;;;;;;6205577;28;20175;-68
2021/09/11 13:23:41;;;;;;;9.43;8.52;;;;;;;;;;6216473;28;20088;-68
2021/09/11 13:26:44;;;;;;;8.40;6.97;;;;;;;;;;6200548;28;20383;-69
2021/09/11 13:29:46;;;;;;;8.40;7.53;;;;;;;;;;6216815;28;20190;-69
2021/09/11 13:32:47;;;;;;;;;;;;;;;;;;6201360;28;20149;-69
2021/09/11 13:35:49;;;;;;;9.93;7.40;;;;;;;;;;6205936;28;19925;-70
2021/09/11 13:38:50;;;;;;;;;;;;;;;;;;6216503;28;20049;-69
2021/09/11 13:41:53;;;;;;;12.32;8.13;;;;;;;;;;6196157;28;19921;-69
2021/09/11 13:44:55;;;;;;;11.18;7.85;;;;;;;;;;6215882;28;20046;-69
2021/09/11 13:47:56;;;;;;;7.53;6.82;;;;;;;;;;6195455;28;22917;-69
2021/09/11 13:50:58;;;;;;;9.02;7.82;;;;;;;;;;6188106;28;20124;-69
2021/09/11 13:54:00;;;;;;;8.68;7.20;;;;;;;;;;6193319;28;20073;-69
2021/09/11 13:57:03;;;;;;;8.50;7.50;;;;;;;;;;6199123;28;20054;-69
2021/09/11 14:00:07;;;;;;;10.23;7.35;;;;;;;;;;6207544;28;20073;-70
2021/09/11 14:03:08;;;;;;;8.05;6.95;;;;;;;;;;6201660;28;20475;-69
2021/09/11 14:06:10;;;;;;;;;;;;;;;;;;6198647;28;20457;-70
2021/09/11 14:09:11;;;;;;;8.95;7.13;;;;;;;;;;6201444;28;20269;-70
2021/09/11 14:12:14;;;;;;;;;;;;;;;;;;6203618;28;20064;-68
2021/09/11 14:15:19;;;;;;;136.85;120.88;;;;;;;;;;6208719;28;19931;-77
2021/09/11 14:18:21;;;;;;;9.15;8.15;;;;;;;;;;6199954;28;20140;-69
2021/09/11 14:21:22;;;;;;;;;;;;;;;;;;6191823;28;20073;-69
2021/09/11 14:24:24;;;;;;;8.90;7.77;;;;;;;;;;6205742;28;20354;-69
2021/09/11 14:27:27;;;;;;;8.85;7.50;;;;;;;;;;6198059;28;20512;-69
2021/09/11 14:30:29;;;;;;;7.95;7.05;;;;;;;;;;6193690;28;20082;-69
2021/09/11 14:33:30;;;;;;;;;;;;;;;;;;6207129;28;20529;-70
2021/09/11 14:36:32;;;;;;;8.30;7.28;;;;;;;;;;6210675;28;19921;-69
2021/09/11 14:39:34;;;;;;;8.50;7.35;;;;;;;;;;6206950;28;20069;-69
2021/09/11 14:42:37;;;;;;;8.20;7.40;;;;;;;;;;6200042;28;20129;-69
2021/09/11 14:45:39;;;;;;;7.72;6.30;;;;;;;;;;6203985;28;20525;-69
2021/09/11 14:48:41;;;;;;;11.35;7.40;;;;;;;;;;6224241;28;20128;-69
2021/09/11 14:51:42;;;;;;;7.82;7.03;;;;;;;;;;6232080;28;20108;-69
2021/09/11 14:54:44;;;;;;;13.98;6.95;;;;;;;;;;6217081;28;20513;-69
2021/09/11 14:57:47;;;;;;;9.02;7.47;;;;;;;;;;6197990;28;20051;-69
2021/09/11 15:00:48;;;;;;;9.90;6.80;;;;;;;;;;6193934;28;20046;-70
2021/09/11 15:03:50;;;;;;;7.63;6.78;;;;;;;;;;6197370;28;20188;-69
2021/09/11 15:06:51;;;;;;;;;;;;;;;;;;6200067;28;20129;-69
2021/09/11 15:09:53;;;;;;;8.00;7.30;;;;;;;;;;6204446;28;19948;-69
2021/09/11 15:12:56;;;;;;;;;;;;;;;;;;6205150;28;20133;-69
2021/09/11 15:15:58;;;;;;;7.60;6.47;;;;;;;;;;6195791;28;19984;-70
2021/09/11 15:19:00;;;;;;;7.25;6.50;;;;;;;;;;6209333;28;20164;-69
2021/09/11 15:22:02;;;;;;;7.53;6.82;;;;;;;;;;6201953;28;20057;-69
2021/09/11 15:25:04;;;;;;;;;;;;;;;;;;6226102;28;20248;-69
2021/09/11 15:28:07;;;;;;;9.82;6.85;;;;;;;;;;6217334;28;20023;-69
2021/09/11 15:31:08;;;;;;;7.50;6.43;;;;;;;;;;6190360;28;20136;-70
2021/09/11 15:34:10;;;;;;;;;;;;;;;;;;6203698;28;20042;-69
2021/09/11 15:37:11;;;;;;;9.82;6.55;;;;;;;;;;6197150;28;20015;-69
2021/09/11 15:40:14;;;;;;;8.18;6.47;;;;;;;;;;6199362;28;20548;-69
2021/09/11 15:43:17;;;;;;;7.97;6.43;;;;;;;;;;6202145;28;20069;-69
2021/09/11 15:46:18;;;;;;;7.68;6.75;;;;;;;;;;6202432;28;20209;-69
2021/09/11 15:49:20;;;;;;;7.78;6.63;;;;;;;;;;6209425;28;20053;-69
2021/09/11 15:52:22;;;;;;;8.13;6.95;;;;;;;;;;6193543;28;20042;-69
2021/09/11 15:55:23;;;;;;;;;;;;;;;;;;6204339;28;20037;-70
2021/09/11 15:58:26;;;;;;;7.13;6.43;;;;;;;;;;6208337;28;20059;-69
2021/09/11 16:01:28;;;;;;;7.10;6.40;;;;;;;;;;6199974;28;20050;-69
2021/09/11 16:04:30;;;;;;;7.68;6.30;;;;;;;;;;6200082;28;20042;-69
2021/09/11 16:07:32;;;;;;;8.13;6.65;;;;;;;;;;6194645;28;20133;-69
2021/09/11 16:10:33;;;;;;;7.60;6.65;;;;;;;;;;6206617;28;20056;-69
2021/09/11 16:13:36;;;;;;;7.22;6.50;;;;;;;;;;6216839;28;20195;-69
2021/09/11 16:16:37;;;;;;;8.85;6.70;;;;;;;;;;6192092;28;20100;-69
2021/09/11 16:19:39;;;;;;;6.85;6.13;;;;;;;;;;6202924;28;20042;-68
2021/09/11 16:22:41;;;;;;;7.10;6.47;;;;;;;;;;6198824;28;20060;-69
2021/09/11 16:25:42;;;;;;;;;;;;;;;;;;6199905;28;20124;-69
2021/09/11 16:28:45;;;;;;;8.30;6.80;;;;;;;;;;6204814;28;19929;-70
2021/09/11 16:31:47;;;;;;;7.40;6.65;;;;;;;;;;6194777;28;20933;-70
2021/09/11 16:34:48;;;;;;;8.77;6.85;;;;;;;;;;6203178;28;20116;-70
2021/09/11 16:37:50;;;;;;;7.97;6.40;;;;;;;;;;6205669;28;20393;-70
2021/09/11 16:40:51;;;;;;;7.15;6.45;;;;;;;;;;6197789;28;20065;-69
2021/09/11 16:43:54;;;;;;;6.78;5.85;;;;;;;;;;6210870;28;20090;-70
2021/09/11 16:46:56;;;;;;;8.40;6.00;;;;;;;;;;6194967;28;20046;-70
2021/09/11 16:49:58;;;;;;;8.00;6.45;;;;;;;;;;6212136;28;20042;-69
2021/09/11 16:52:59;;;;;;;7.95;7.15;;;;;;;;;;6213449;28;20188;-70
2021/09/11 16:56:01;;;;;;;9.80;7.47;;;;;;;;;;6207304;28;20050;-69
2021/09/11 16:59:04;;;;;;;7.13;6.10;;;;;;;;;;6209031;28;20060;-70
2021/09/11 17:02:05;;;;;;;7.07;6.15;;;;;;;;;;6201777;28;20070;-69
2021/09/11 17:05:09;;;;;;;8.05;7.25;;;;;;;;;;6217032;28;20073;-69
2021/09/11 17:08:10;;;;;;;8.63;6.53;;;;;;;;;;6207682;28;20097;-69
2021/09/11 17:11:12;;;;;;;7.33;6.50;;;;;;;;;;6203666;28;20062;-70
2021/09/11 17:14:15;;;;;;;7.90;6.57;;;;;;;;;;6222372;28;20038;-69
2021/09/11 17:17:16;;;;;;;7.28;6.53;;;;;;;;;;6201336;28;20066;-69
2021/09/11 17:20:18;;;;;;;9.40;6.78;;;;;;;;;;6206794;28;20105;-70
2021/09/11 17:23:20;;;;;;;6.95;6.25;;;;;;;;;;6210002;28;20525;-69
2021/09/11 17:26:21;;;;;;;9.15;6.70;;;;;;;;;;6200504;28;20093;-69
2021/09/11 17:29:24;;;;;;;7.82;6.15;;;;;;;;;;6211040;28;20058;-69
2021/09/11 17:32:26;;;;;;;6.43;5.82;;;;;;;;;;6197079;28;20101;-69
2021/09/11 17:35:29;;;;;;;7.38;6.18;;;;;;;;;;6200131;28;20155;-69
2021/09/11 17:38:31;;;;;;;7.00;6.03;;;;;;;;;;6207806;28;20451;-69
2021/09/11 17:41:34;;;;;;;7.65;6.28;;;;;;;;;;6206002;28;20061;-67
2021/09/11 17:44:37;;;;;;;;;;;;;;;;;;6223449;28;20309;-68
2021/09/11 17:47:39;;;;;;;11.45;6.68;;;;;;;;;;6208177;28;19961;-66
2021/09/11 17:50:40;;;;;;;11.45;6.70;;;;;;;;;;6228493;28;20234;-66
2021/09/11 17:53:42;;;;;;;7.28;6.57;;;;;;;;;;6240645;28;20152;-66
2021/09/11 17:56:43;;;;;;;10.20;6.80;;;;;;;;;;6242803;28;20084;-67
2021/09/11 17:59:46;;;;;;;9.30;7.05;;;;;;;;;;6241346;28;20050;-67
2021/09/11 18:02:49;;;;;;;8.93;6.50;;;;;;;;;;6225142;28;20192;-67